Osnabrock, ND (58269)

12:29 PM CST die 23o February, anno 2017 (GMT -0600)
Olga, ND | | Change Station

Elev 1542 ft 48.80 °N, 98.04 °W | Updated 29 seconds ago

Aequaliter Nubila
Aequaliter Nubila
23.2 °F
Feels Like 23 °F
N
3.0
Ventus Variabilis Ventus from Magis Eurus quam Aquilo

Hodie
High -- | Low -- °F
--% Chance of Precip.
Yesterday
High -- | Low -- °F
Precip. -- in
Pressio 30.11 in
Visibilitas 10.0 milia passuum
Clouds Aequaliter Nubila 2000 ft
Frigus Venti 23 °F
Frigus in quo Ros apparet 17 °F
Umor 80%
Rainfall 0.00 in
Snow Depth Not available.
7:25 AM 6:07 PM
Waning Crescent, 9% visible
METAR KGAF 231815Z AUTO 02013KT 10SM OVC020 M05/M08 A3011 RMK AO2
Pressio 30.11 in
Visibilitas 10.0 milia passuum
Clouds Aequaliter Nubila 2000 ft
Frigus Venti 23 °F
Frigus in quo Ros apparet 17 °F
Umor 80%
Rainfall 0.00 in
Snow Depth Not available.
7:25 AM 6:07 PM
Waning Crescent, 9% visible
METAR KGAF 231815Z AUTO 02013KT 10SM OVC020 M05/M08 A3011 RMK AO2

Get Your Daily Forecast Email!

Thanks for signing up!

Be on the lookout for a verification email in your inbox.

You'll start receiving the daily forecast at 8 AM.

×

10-Day Weather Forecast

Almanac

Astronomy

Feb. 23, 2017 Rise Set
Actual Time
Civil Twilight
Nautical Twilight
Astronomical Twilight
Moon
Length Of Visible Light
Length of Day
Tomorrow will be .
, % of the Moon is Illuminated

Today's Extremes

State Highs State Lows

Community

WunderPhotos

Upload Photos

1,962,540 photos uploaded!

WunderBlog® & News

Nearby

Air Quality

  Air Quality AQ Index Pollutant
Not available.

Snow Depth

Station Depth Elevation

Earthquake Activity

City Distance Mag. Time & Date
Minimum magnitude displayed is 2.5.

Coastal Water Temperatures

Locus Calor

Stations

Nearby Weather Stations

Station Location Temp Frigus Venti Frigus in quo Ros apparet Umor Ventus Precip. Elev Renovata Type
                   

Watches & Warnings

There are currently no watches in effect.